createdAt,value
2023-03-03T00:00:11.806Z,2.30
2023-03-03T00:03:05.478Z,2.40
2023-03-03T00:05:33.835Z,2.40
2023-03-03T00:08:02.069Z,2.20
2023-03-03T00:10:29.402Z,2.30
2023-03-03T00:12:56.981Z,2.30
2023-03-03T00:15:25.977Z,2.40
2023-03-03T00:17:53.987Z,2.60
2023-03-03T00:20:39.294Z,2.60
2023-03-03T00:23:21.011Z,2.60
2023-03-03T00:25:51.114Z,2.60
2023-03-03T00:28:38.811Z,2.60
2023-03-03T00:31:26.942Z,2.60
2023-03-03T00:33:57.061Z,2.60
2023-03-03T00:36:56.098Z,2.50
2023-03-03T00:39:39.306Z,2.40
2023-03-03T00:42:16.686Z,2.50
2023-03-03T00:44:49.212Z,2.40
2023-03-03T00:47:31.241Z,2.40
2023-03-03T00:50:22.664Z,2.40
2023-03-03T00:53:03.498Z,2.30
2023-03-03T00:55:31.816Z,2.40
2023-03-03T00:57:58.985Z,2.40
2023-03-03T01:00:33.880Z,2.40
2023-03-03T01:03:07.551Z,2.40
2023-03-03T01:05:36.337Z,2.30
2023-03-03T01:08:05.102Z,2.10
2023-03-03T01:10:36.018Z,2.00
2023-03-03T01:13:04.510Z,1.80
2023-03-03T01:15:32.352Z,1.80
2023-03-03T01:17:59.786Z,1.80
2023-03-03T01:20:27.270Z,1.80
2023-03-03T01:22:54.485Z,1.80
2023-03-03T01:25:22.073Z,1.80
2023-03-03T01:27:49.259Z,1.80
2023-03-03T01:30:17.380Z,1.90
2023-03-03T01:32:44.591Z,1.80
2023-03-03T01:35:12.671Z,1.80
2023-03-03T01:37:40.195Z,1.80
2023-03-03T01:40:12.470Z,1.80
2023-03-03T01:42:39.712Z,1.70
2023-03-03T01:45:14.621Z,1.70
2023-03-03T01:47:48.682Z,1.60
2023-03-03T01:50:32.556Z,1.60
2023-03-03T01:53:02.629Z,1.70
2023-03-03T01:55:35.448Z,1.70
2023-03-03T01:58:14.736Z,1.60
2023-03-03T02:00:46.339Z,1.50
2023-03-03T02:03:13.590Z,1.60
2023-03-03T02:05:43.172Z,1.40
2023-03-03T02:08:16.435Z,1.40
2023-03-03T02:10:46.223Z,1.40
2023-03-03T02:13:13.969Z,1.50
2023-03-03T02:15:42.164Z,1.50
2023-03-03T02:18:18.890Z,1.70
2023-03-03T02:20:52.499Z,1.70
2023-03-03T02:23:31.432Z,1.60
2023-03-03T02:26:00.324Z,1.70
2023-03-03T02:28:32.880Z,1.80
2023-03-03T02:31:13.129Z,1.80
2023-03-03T02:33:46.468Z,1.80
2023-03-03T02:36:18.820Z,1.60
2023-03-03T02:38:48.740Z,1.50
2023-03-03T02:41:18.952Z,1.50
2023-03-03T02:43:55.064Z,1.60
2023-03-03T02:46:22.726Z,1.70
2023-03-03T02:48:49.948Z,1.70
2023-03-03T02:51:17.613Z,1.60
2023-03-03T02:53:46.192Z,1.60
2023-03-03T02:56:13.798Z,1.60
2023-03-03T02:58:41.111Z,1.40
2023-03-03T03:01:09.341Z,1.20
2023-03-03T03:03:37.314Z,1.20
2023-03-03T03:06:06.689Z,1.30
2023-03-03T03:08:35.477Z,1.30
2023-03-03T03:11:05.991Z,1.30
2023-03-03T03:13:34.173Z,1.30
2023-03-03T03:16:02.439Z,1.30
2023-03-03T03:18:30.109Z,1.20
2023-03-03T03:21:06.587Z,1.20
2023-03-03T03:23:34.988Z,1.30
2023-03-03T03:26:03.320Z,1.30
2023-03-03T03:28:31.350Z,1.30
2023-03-03T03:30:59.029Z,1.10
2023-03-03T03:33:28.348Z,1.10
2023-03-03T03:35:57.933Z,1.10
2023-03-03T03:38:30.032Z,1.10
2023-03-03T03:40:58.265Z,1.20
2023-03-03T03:43:25.974Z,1.00
2023-03-03T03:45:53.793Z,1.00
2023-03-03T03:48:21.868Z,0.90
2023-03-03T03:50:50.874Z,0.90
2023-03-03T03:53:19.548Z,0.80
2023-03-03T03:55:47.803Z,0.80
2023-03-03T03:58:17.419Z,0.70
2023-03-03T04:00:49.037Z,0.70
2023-03-03T04:03:17.304Z,0.70
2023-03-03T04:05:47.047Z,0.70
2023-03-03T04:08:14.312Z,0.80
2023-03-03T04:10:43.417Z,0.90
2023-03-03T04:13:11.552Z,0.90
2023-03-03T04:15:40.204Z,0.90
2023-03-03T04:18:07.387Z,1.00
2023-03-03T04:20:35.138Z,0.90
2023-03-03T04:23:02.994Z,0.90
2023-03-03T04:25:32.445Z,0.70
2023-03-03T04:28:00.126Z,0.70
2023-03-03T04:30:27.812Z,0.80
2023-03-03T04:32:57.258Z,0.80
2023-03-03T04:35:27.973Z,0.80
2023-03-03T04:37:56.187Z,0.70
2023-03-03T04:40:24.753Z,0.60
2023-03-03T04:42:52.534Z,0.60
2023-03-03T04:45:19.999Z,0.60
2023-03-03T04:47:47.792Z,0.70
2023-03-03T04:50:15.451Z,0.70
2023-03-03T04:52:43.186Z,0.70
2023-03-03T04:55:11.290Z,0.60
2023-03-03T04:57:40.200Z,0.60
2023-03-03T05:00:09.551Z,0.60
2023-03-03T05:02:36.766Z,0.70
2023-03-03T05:05:04.810Z,0.70
2023-03-03T05:07:33.218Z,0.60
2023-03-03T05:10:00.657Z,0.50
2023-03-03T05:12:28.618Z,0.50
2023-03-03T05:14:56.071Z,0.50
2023-03-03T05:17:23.438Z,0.60
2023-03-03T05:19:50.911Z,0.70
2023-03-03T05:22:18.281Z,0.80
2023-03-03T05:24:49.084Z,0.80
2023-03-03T05:27:17.007Z,0.80
2023-03-03T05:29:44.496Z,0.80
2023-03-03T05:32:11.692Z,0.80
2023-03-03T05:34:39.375Z,0.70
2023-03-03T05:37:06.831Z,0.80
2023-03-03T05:39:35.199Z,0.80
2023-03-03T05:42:02.629Z,0.80
2023-03-03T05:44:30.152Z,0.70
2023-03-03T05:46:57.799Z,0.80
2023-03-03T05:49:26.835Z,0.70
2023-03-03T05:51:54.059Z,0.70
2023-03-03T05:54:21.520Z,0.70
2023-03-03T05:56:48.666Z,0.70
2023-03-03T05:59:16.111Z,0.70
2023-03-03T06:01:43.325Z,0.70
2023-03-03T06:04:11.014Z,0.70
2023-03-03T06:06:38.289Z,0.70
2023-03-03T06:09:06.339Z,0.70
2023-03-03T06:11:33.620Z,0.90
2023-03-03T06:14:01.313Z,0.90
2023-03-03T06:16:28.645Z,0.90
2023-03-03T06:18:56.129Z,1.00
2023-03-03T06:21:23.317Z,1.00
2023-03-03T06:23:50.764Z,1.10
2023-03-03T06:26:17.943Z,1.20
2023-03-03T06:28:45.507Z,1.30
2023-03-03T06:31:12.696Z,1.30
2023-03-03T06:33:40.632Z,1.40
2023-03-03T06:36:08.100Z,1.40
2023-03-03T06:38:35.509Z,1.40
2023-03-03T06:41:07.257Z,1.30
2023-03-03T06:43:35.962Z,1.30
2023-03-03T06:46:04.304Z,1.10
2023-03-03T06:48:32.988Z,0.80
2023-03-03T06:51:03.023Z,0.70
2023-03-03T06:53:33.174Z,0.60
2023-03-03T06:56:01.894Z,0.70
2023-03-03T06:58:29.609Z,0.70
2023-03-03T07:00:59.171Z,0.60
2023-03-03T07:03:34.502Z,0.70
2023-03-03T07:06:08.658Z,0.80
2023-03-03T07:08:37.203Z,0.90
2023-03-03T07:11:12.888Z,1.00
2023-03-03T07:13:48.343Z,1.00
2023-03-03T07:16:18.095Z,0.90
2023-03-03T07:19:04.022Z,1.00
2023-03-03T07:21:36.423Z,1.20
2023-03-03T07:24:21.119Z,0.90
2023-03-03T07:26:48.415Z,0.90
2023-03-03T07:29:30.507Z,1.00
2023-03-03T07:32:00.821Z,0.80
2023-03-03T07:34:38.532Z,0.70
2023-03-03T07:37:18.633Z,0.70
2023-03-03T07:39:47.515Z,0.70
2023-03-03T07:42:22.384Z,0.50
2023-03-03T07:44:59.914Z,0.50
2023-03-03T07:47:37.386Z,0.30
2023-03-03T07:50:21.479Z,0.40
2023-03-03T07:52:51.897Z,0.40
2023-03-03T07:55:39.190Z,0.50
2023-03-03T07:58:16.366Z,0.50
2023-03-03T08:01:02.252Z,0.50
2023-03-03T08:03:29.683Z,0.70
2023-03-03T08:05:57.834Z,0.90
2023-03-03T08:08:37.045Z,0.80
2023-03-03T08:11:05.925Z,0.80
2023-03-03T08:13:33.156Z,0.50
2023-03-03T08:16:09.783Z,0.70
2023-03-03T08:18:43.908Z,0.80
2023-03-03T08:21:16.508Z,0.50
2023-03-03T08:23:44.813Z,0.50
2023-03-03T08:26:14.088Z,0.70
2023-03-03T08:28:41.466Z,1.00
2023-03-03T08:31:18.454Z,0.90
2023-03-03T08:33:52.761Z,1.00
2023-03-03T08:36:20.218Z,0.80
2023-03-03T08:38:47.668Z,0.80
2023-03-03T08:41:15.237Z,0.60
2023-03-03T08:43:45.400Z,0.70
2023-03-03T08:46:12.942Z,0.60
2023-03-03T08:48:40.207Z,0.60
2023-03-03T08:51:07.721Z,0.80
2023-03-03T08:53:36.635Z,0.80
2023-03-03T08:56:05.824Z,1.10
2023-03-03T08:58:35.597Z,1.20
2023-03-03T09:01:05.040Z,1.20
2023-03-03T09:03:34.119Z,1.20
2023-03-03T09:06:01.548Z,1.10
2023-03-03T09:08:28.718Z,1.00
2023-03-03T09:10:56.305Z,1.20
2023-03-03T09:13:23.567Z,1.50
2023-03-03T09:15:51.410Z,1.70
2023-03-03T09:18:29.155Z,1.90
2023-03-03T09:20:59.730Z,2.10
2023-03-03T09:23:26.852Z,2.20
2023-03-03T09:25:54.867Z,2.20
2023-03-03T09:28:40.189Z,2.60
2023-03-03T09:31:28.124Z,2.70
2023-03-03T09:33:57.913Z,2.40
2023-03-03T09:36:38.702Z,2.20
2023-03-03T09:39:24.676Z,1.90
2023-03-03T09:42:19.396Z,2.10
2023-03-03T09:45:15.209Z,2.60
2023-03-03T09:48:20.949Z,2.80
2023-03-03T09:51:21.861Z,2.80
2023-03-03T09:53:49.309Z,2.70
2023-03-03T09:56:31.354Z,3.00
2023-03-03T09:59:04.759Z,3.00
2023-03-03T10:02:02.530Z,2.40
2023-03-03T10:04:58.887Z,2.40
2023-03-03T10:07:46.693Z,2.70
2023-03-03T10:10:43.511Z,3.00
2023-03-03T10:13:15.730Z,2.90
2023-03-03T10:16:02.386Z,3.00
2023-03-03T10:18:50.914Z,2.70
2023-03-03T10:21:37.265Z,2.70
2023-03-03T10:24:04.785Z,2.60
2023-03-03T10:26:45.155Z,2.20
2023-03-03T10:29:29.185Z,2.30
2023-03-03T10:32:01.088Z,2.40
2023-03-03T10:34:46.766Z,2.40
2023-03-03T10:37:19.868Z,2.50
2023-03-03T10:39:59.208Z,2.40
2023-03-03T10:42:48.044Z,2.10
2023-03-03T10:46:07.114Z,2.20
2023-03-03T10:49:02.308Z,2.30
2023-03-03T10:51:50.248Z,2.40
2023-03-03T10:54:43.394Z,2.60
2023-03-03T10:57:35.167Z,2.40
2023-03-03T11:00:31.785Z,2.20
2023-03-03T11:03:16.333Z,2.10
2023-03-03T11:06:01.320Z,2.20
2023-03-03T11:08:39.047Z,2.30
2023-03-03T11:11:25.496Z,2.50
2023-03-03T11:14:17.793Z,2.70
2023-03-03T11:16:47.212Z,2.80
2023-03-03T11:19:45.693Z,2.90
2023-03-03T11:22:33.433Z,2.60
2023-03-03T11:25:09.067Z,2.60
2023-03-03T11:27:54.712Z,2.30
2023-03-03T11:30:45.392Z,2.30
2023-03-03T11:33:17.964Z,2.10
2023-03-03T11:36:18.213Z,2.00
2023-03-03T11:38:58.993Z,2.10
2023-03-03T11:41:42.493Z,2.20
2023-03-03T11:44:25.278Z,2.20
2023-03-03T11:47:05.453Z,1.90
2023-03-03T11:49:35.628Z,1.80
2023-03-03T11:52:12.657Z,1.80
2023-03-03T11:54:48.459Z,1.90
2023-03-03T11:57:27.531Z,1.90
2023-03-03T12:00:22.797Z,2.00
2023-03-03T12:03:28.174Z,2.00
2023-03-03T12:06:23.591Z,2.00
2023-03-03T12:09:12.248Z,1.80
2023-03-03T12:11:54.178Z,2.00
2023-03-03T12:14:42.836Z,2.10
2023-03-03T12:17:45.168Z,1.90
2023-03-03T12:20:59.314Z,1.90
2023-03-03T12:24:03.685Z,1.90
2023-03-03T12:27:00.113Z,1.90
2023-03-03T12:29:46.940Z,2.00
2023-03-03T12:32:41.657Z,2.00
2023-03-03T12:35:18.226Z,2.00
2023-03-03T12:37:53.243Z,1.90
2023-03-03T12:40:35.013Z,1.90
2023-03-03T12:43:12.725Z,2.00
2023-03-03T12:45:49.069Z,2.00
2023-03-03T12:48:18.135Z,2.00
2023-03-03T12:50:48.405Z,1.90
2023-03-03T12:53:30.562Z,1.70
2023-03-03T12:56:35.509Z,1.60
2023-03-03T12:59:20.911Z,1.60
2023-03-03T13:02:06.852Z,1.60
2023-03-03T13:04:47.149Z,1.70
2023-03-03T13:07:41.247Z,1.50
2023-03-03T13:10:19.399Z,1.60
2023-03-03T13:13:03.080Z,1.50
2023-03-03T13:15:51.851Z,1.60
2023-03-03T13:18:49.801Z,1.70
2023-03-03T13:21:37.946Z,1.60
2023-03-03T13:24:19.307Z,1.50
2023-03-03T13:27:06.160Z,1.50
2023-03-03T13:29:58.723Z,1.60
2023-03-03T13:32:44.765Z,1.70
2023-03-03T13:35:24.672Z,1.60
2023-03-03T13:37:58.203Z,1.40
2023-03-03T13:40:42.560Z,1.30
2023-03-03T13:43:21.667Z,1.20
2023-03-03T13:46:06.585Z,1.30
2023-03-03T13:48:51.717Z,1.30
2023-03-03T13:51:43.511Z,1.30
2023-03-03T13:54:32.562Z,1.20
2023-03-03T13:57:20.188Z,1.10
2023-03-03T14:00:24.643Z,1.10
2023-03-03T14:03:29.824Z,1.00
2023-03-03T14:06:04.449Z,0.90
2023-03-03T14:08:43.526Z,1.00
2023-03-03T14:11:17.746Z,1.00
2023-03-03T14:13:54.053Z,0.90
2023-03-03T14:16:57.629Z,0.90
2023-03-03T14:19:43.800Z,1.10
2023-03-03T14:22:26.028Z,1.00
2023-03-03T14:25:06.846Z,1.10
2023-03-03T14:27:48.835Z,1.00
2023-03-03T14:30:29.523Z,0.90
2023-03-03T14:33:16.067Z,0.90
2023-03-03T14:36:00.998Z,0.80
2023-03-03T14:38:33.837Z,0.80
2023-03-03T14:41:22.124Z,0.70
2023-03-03T14:44:21.811Z,0.70
2023-03-03T14:47:10.238Z,0.90
2023-03-03T14:49:39.615Z,1.00
2023-03-03T14:52:16.082Z,0.80
2023-03-03T14:54:51.541Z,0.90
2023-03-03T14:57:33.749Z,1.00
2023-03-03T15:00:22.520Z,0.70
2023-03-03T15:02:52.717Z,0.70
2023-03-03T15:05:27.060Z,0.70
2023-03-03T15:08:03.671Z,0.70
2023-03-03T15:10:37.236Z,0.70
2023-03-03T15:13:20.050Z,0.90
2023-03-03T15:16:10.527Z,0.80
2023-03-03T15:19:15.211Z,0.60
2023-03-03T15:22:21.946Z,0.60
2023-03-03T15:25:03.903Z,0.50
2023-03-03T15:27:41.871Z,0.50
2023-03-03T15:30:09.277Z,0.60
2023-03-03T15:32:51.413Z,0.60
2023-03-03T15:35:52.467Z,0.60
2023-03-03T15:38:40.779Z,0.50
2023-03-03T15:41:26.377Z,0.60
2023-03-03T15:44:04.522Z,0.50
2023-03-03T15:46:32.116Z,0.30
2023-03-03T15:49:17.381Z,0.30
2023-03-03T15:52:12.563Z,0.30
2023-03-03T15:54:45.774Z,0.30
2023-03-03T15:57:24.865Z,0.40
2023-03-03T15:59:58.074Z,0.40
2023-03-03T16:02:38.288Z,0.40
2023-03-03T16:05:22.988Z,0.40
2023-03-03T16:07:53.423Z,0.50
2023-03-03T16:10:52.486Z,0.30
2023-03-03T16:13:51.043Z,0.20
2023-03-03T16:16:30.265Z,0.10
2023-03-03T16:19:00.518Z,0.10
2023-03-03T16:21:35.139Z,0.20
2023-03-03T16:24:30.333Z,0.20
2023-03-03T16:27:03.561Z,0.20
2023-03-03T16:29:52.609Z,0.20
2023-03-03T16:32:41.701Z,0.20
2023-03-03T16:35:28.299Z,0.20
2023-03-03T16:38:09.339Z,0.20
2023-03-03T16:40:48.577Z,0.30
2023-03-03T16:43:33.846Z,0.40
2023-03-03T16:46:29.216Z,0.40
2023-03-03T16:49:15.617Z,0.40
2023-03-03T16:51:56.975Z,0.50
2023-03-03T16:54:54.249Z,0.50
2023-03-03T16:57:24.375Z,0.40
2023-03-03T17:00:10.745Z,0.50
2023-03-03T17:03:19.185Z,0.40
2023-03-03T17:05:57.921Z,0.30
2023-03-03T17:08:42.810Z,0.30
2023-03-03T17:11:28.708Z,0.20
2023-03-03T17:14:06.908Z,0.10
2023-03-03T17:16:51.998Z,0.20
2023-03-03T17:19:25.864Z,0.10
2023-03-03T17:21:58.866Z,0.10
2023-03-03T17:25:00.858Z,0.10
2023-03-03T17:27:37.271Z,0.10
2023-03-03T17:30:38.647Z,0.10
2023-03-03T17:33:50.570Z,0.20
2023-03-03T17:36:29.343Z,0.20
2023-03-03T17:39:30.636Z,0.30
2023-03-03T17:42:00.984Z,0.40
2023-03-03T17:45:08.278Z,0.40
2023-03-03T17:48:02.932Z,0.30
2023-03-03T17:51:00.815Z,0.30
2023-03-03T17:53:42.698Z,0.20
2023-03-03T17:56:30.170Z,0.10
2023-03-03T17:58:57.708Z,0.00
2023-03-03T18:01:34.119Z,0.20
2023-03-03T18:04:38.942Z,0.20
2023-03-03T18:07:20.914Z,0.20
2023-03-03T18:10:12.574Z,0.20
2023-03-03T18:13:13.192Z,0.20
2023-03-03T18:16:10.388Z,0.20
2023-03-03T18:18:56.955Z,0.20
2023-03-03T18:21:36.062Z,0.20
2023-03-03T18:24:25.162Z,0.20
2023-03-03T18:26:56.153Z,0.30
2023-03-03T18:29:28.849Z,0.30
2023-03-03T18:31:59.034Z,0.40
2023-03-03T18:34:42.191Z,0.40
2023-03-03T18:37:31.771Z,0.40
2023-03-03T18:40:04.931Z,0.30
2023-03-03T18:42:43.686Z,0.40
2023-03-03T18:45:20.250Z,0.40
2023-03-03T18:48:10.703Z,0.50
2023-03-03T18:50:40.739Z,0.50
2023-03-03T18:53:11.053Z,0.50
2023-03-03T18:55:44.200Z,0.40
2023-03-03T18:58:14.608Z,0.40
2023-03-03T19:01:22.084Z,0.40
2023-03-03T19:03:49.503Z,0.40
2023-03-03T19:06:32.299Z,0.50
2023-03-03T19:08:59.792Z,0.60
2023-03-03T19:11:54.315Z,0.60
2023-03-03T19:14:31.926Z,0.60
2023-03-03T19:17:23.264Z,0.60
2023-03-03T19:20:14.316Z,0.70
2023-03-03T19:22:52.082Z,0.70
2023-03-03T19:25:25.041Z,0.80
2023-03-03T19:28:13.418Z,0.80
2023-03-03T19:31:04.856Z,0.80
2023-03-03T19:34:09.674Z,0.80
2023-03-03T19:37:00.884Z,0.90
2023-03-03T19:40:03.642Z,0.90
2023-03-03T19:42:47.680Z,0.90
2023-03-03T19:45:26.732Z,0.90
2023-03-03T19:48:29.630Z,0.80
2023-03-03T19:51:29.908Z,0.80
2023-03-03T19:54:18.900Z,0.80
2023-03-03T19:56:50.760Z,0.80
2023-03-03T19:59:44.844Z,0.90
2023-03-03T20:02:45.967Z,0.90
2023-03-03T20:05:36.288Z,0.90
2023-03-03T20:08:06.583Z,0.90
2023-03-03T20:10:54.860Z,0.90
2023-03-03T20:13:33.184Z,0.90
2023-03-03T20:16:18.539Z,0.80
2023-03-03T20:19:14.747Z,0.80
2023-03-03T20:22:01.083Z,0.80
2023-03-03T20:24:34.634Z,0.80
2023-03-03T20:27:29.877Z,0.70
2023-03-03T20:30:12.347Z,0.70
2023-03-03T20:32:40.513Z,0.80
2023-03-03T20:35:28.378Z,0.80
2023-03-03T20:38:16.968Z,0.80
2023-03-03T20:40:56.223Z,0.80
2023-03-03T20:44:04.982Z,0.70
2023-03-03T20:46:38.333Z,0.90
2023-03-03T20:49:15.304Z,1.00
2023-03-03T20:51:53.130Z,0.90
2023-03-03T20:54:29.824Z,0.80
2023-03-03T20:57:21.710Z,0.80
2023-03-03T20:59:58.997Z,0.70
2023-03-03T21:02:34.143Z,0.70
2023-03-03T21:05:14.686Z,0.70
2023-03-03T21:08:03.016Z,0.70
2023-03-03T21:10:36.085Z,0.70
2023-03-03T21:13:21.587Z,0.70
2023-03-03T21:15:59.882Z,0.70
2023-03-03T21:18:27.549Z,0.70
2023-03-03T21:20:55.328Z,0.70
2023-03-03T21:23:23.119Z,0.70
2023-03-03T21:25:52.948Z,0.70
2023-03-03T21:28:23.209Z,0.70
2023-03-03T21:31:08.969Z,0.70
2023-03-03T21:33:57.681Z,0.70
2023-03-03T21:36:45.780Z,0.60
2023-03-03T21:39:45.824Z,0.60
2023-03-03T21:42:21.260Z,0.60
2023-03-03T21:44:51.786Z,0.60
2023-03-03T21:47:21.089Z,0.60
2023-03-03T21:49:50.862Z,0.50
2023-03-03T21:52:20.929Z,0.50
2023-03-03T21:54:50.180Z,0.40
2023-03-03T21:57:18.287Z,0.50
2023-03-03T21:59:47.248Z,0.40
2023-03-03T22:02:14.439Z,0.50
2023-03-03T22:04:42.267Z,0.50
2023-03-03T22:07:09.874Z,0.50
2023-03-03T22:09:38.177Z,0.40
2023-03-03T22:12:06.486Z,0.40
2023-03-03T22:14:34.302Z,0.40
2023-03-03T22:17:01.598Z,0.50
2023-03-03T22:19:29.018Z,0.50
2023-03-03T22:21:56.168Z,0.50
2023-03-03T22:24:23.670Z,0.50
2023-03-03T22:26:50.920Z,0.60
2023-03-03T22:29:22.822Z,0.60
2023-03-03T22:31:51.032Z,0.60
2023-03-03T22:34:18.780Z,0.60
2023-03-03T22:36:45.977Z,0.60
2023-03-03T22:39:13.500Z,0.50
2023-03-03T22:41:40.742Z,0.50
2023-03-03T22:44:08.163Z,0.50
2023-03-03T22:46:35.405Z,0.50
2023-03-03T22:49:03.165Z,0.50
2023-03-03T22:51:30.304Z,0.60
2023-03-03T22:53:57.746Z,0.60
2023-03-03T22:56:25.032Z,0.60
2023-03-03T22:58:52.547Z,0.60
2023-03-03T23:01:19.764Z,0.60
2023-03-03T23:03:47.313Z,0.60
2023-03-03T23:06:14.480Z,0.50
2023-03-03T23:08:42.228Z,0.60
2023-03-03T23:11:09.366Z,0.50
2023-03-03T23:13:36.944Z,0.50
2023-03-03T23:16:04.440Z,0.50
2023-03-03T23:18:35.055Z,0.50
2023-03-03T23:21:02.265Z,0.50
2023-03-03T23:23:30.597Z,0.50
2023-03-03T23:25:57.947Z,0.40
2023-03-03T23:28:25.940Z,0.30
2023-03-03T23:30:53.309Z,0.30
2023-03-03T23:33:20.978Z,0.30
2023-03-03T23:35:49.827Z,0.20
2023-03-03T23:38:17.813Z,0.20
2023-03-03T23:40:46.853Z,0.30
2023-03-03T23:43:14.827Z,0.20
2023-03-03T23:45:42.621Z,0.30
2023-03-03T23:48:10.244Z,0.30
2023-03-03T23:50:38.075Z,0.30
2023-03-03T23:53:06.983Z,0.30
2023-03-03T23:55:35.061Z,0.20
2023-03-03T23:58:02.563Z,0.20
